sensor_id;sensor_type;location;lat;lon;timestamp;P1;durP1;ratioP1;P2;durP2;ratioP2
29908;SDS011;36247;51.952;6.146;2022-12-18T00:01:46;75.13;;;28.02;;
29908;SDS011;36247;51.952;6.146;2022-12-18T00:04:30;72.38;;;28.23;;
29908;SDS011;36247;51.952;6.146;2022-12-18T00:06:55;75.30;;;28.30;;
29908;SDS011;36247;51.952;6.146;2022-12-18T00:09:21;72.38;;;29.88;;
29908;SDS011;36247;51.952;6.146;2022-12-18T00:11:46;75.03;;;27.58;;
29908;SDS011;36247;51.952;6.146;2022-12-18T00:14:12;75.70;;;28.92;;
29908;SDS011;36247;51.952;6.146;2022-12-18T00:16:38;66.78;;;27.33;;
29908;SDS011;36247;51.952;6.146;2022-12-18T00:19:05;68.30;;;26.35;;
29908;SDS011;36247;51.952;6.146;2022-12-18T00:21:31;66.68;;;26.48;;
29908;SDS011;36247;51.952;6.146;2022-12-18T00:23:57;67.68;;;27.90;;
29908;SDS011;36247;51.952;6.146;2022-12-18T00:26:33;68.40;;;27.38;;
29908;SDS011;36247;51.952;6.146;2022-12-18T00:29:02;67.05;;;28.42;;
29908;SDS011;36247;51.952;6.146;2022-12-18T00:31:32;71.45;;;27.15;;
29908;SDS011;36247;51.952;6.146;2022-12-18T00:34:00;65.78;;;27.58;;
29908;SDS011;36247;51.952;6.146;2022-12-18T00:36:27;74.25;;;27.08;;
29908;SDS011;36247;51.952;6.146;2022-12-18T00:38:55;61.70;;;24.80;;
29908;SDS011;36247;51.952;6.146;2022-12-18T00:41:23;68.82;;;24.60;;
29908;SDS011;36247;51.952;6.146;2022-12-18T00:44:09;61.28;;;25.95;;
29908;SDS011;36247;51.952;6.146;2022-12-18T00:46:36;69.97;;;28.30;;
29908;SDS011;36247;51.952;6.146;2022-12-18T00:49:02;69.15;;;29.77;;
29908;SDS011;36247;51.952;6.146;2022-12-18T00:51:28;68.60;;;27.20;;
29908;SDS011;36247;51.952;6.146;2022-12-18T00:53:54;70.28;;;24.98;;
29908;SDS011;36247;51.952;6.146;2022-12-18T00:56:21;65.55;;;25.70;;
29908;SDS011;36247;51.952;6.146;2022-12-18T00:58:47;72.15;;;27.50;;
29908;SDS011;36247;51.952;6.146;2022-12-18T01:01:13;65.95;;;27.35;;
29908;SDS011;36247;51.952;6.146;2022-12-18T01:03:38;78.80;;;29.92;;
29908;SDS011;36247;51.952;6.146;2022-12-18T01:06:05;67.85;;;25.20;;
29908;SDS011;36247;51.952;6.146;2022-12-18T01:08:32;68.57;;;25.42;;
29908;SDS011;36247;51.952;6.146;2022-12-18T01:10:58;66.43;;;24.35;;
29908;SDS011;36247;51.952;6.146;2022-12-18T01:13:24;67.35;;;27.50;;
29908;SDS011;36247;51.952;6.146;2022-12-18T01:15:50;75.53;;;27.83;;
29908;SDS011;36247;51.952;6.146;2022-12-18T01:18:16;77.95;;;28.58;;
29908;SDS011;36247;51.952;6.146;2022-12-18T01:20:42;60.97;;;25.13;;
29908;SDS011;36247;51.952;6.146;2022-12-18T01:23:07;75.43;;;28.33;;
29908;SDS011;36247;51.952;6.146;2022-12-18T01:25:32;73.25;;;30.55;;
29908;SDS011;36247;51.952;6.146;2022-12-18T01:28:00;65.82;;;28.52;;
29908;SDS011;36247;51.952;6.146;2022-12-18T01:30:26;60.95;;;24.55;;
29908;SDS011;36247;51.952;6.146;2022-12-18T01:32:52;62.08;;;27.92;;
29908;SDS011;36247;51.952;6.146;2022-12-18T01:35:18;73.65;;;27.40;;
29908;SDS011;36247;51.952;6.146;2022-12-18T01:37:45;60.42;;;24.67;;
29908;SDS011;36247;51.952;6.146;2022-12-18T01:40:10;72.57;;;29.20;;
29908;SDS011;36247;51.952;6.146;2022-12-18T01:42:36;69.97;;;27.55;;
29908;SDS011;36247;51.952;6.146;2022-12-18T01:47:41;65.75;;;26.85;;
29908;SDS011;36247;51.952;6.146;2022-12-18T01:50:15;62.35;;;25.48;;
29908;SDS011;36247;51.952;6.146;2022-12-18T01:52:54;56.25;;;22.73;;
29908;SDS011;36247;51.952;6.146;2022-12-18T01:55:23;60.95;;;25.13;;
29908;SDS011;36247;51.952;6.146;2022-12-18T01:57:52;64.05;;;27.50;;
29908;SDS011;36247;51.952;6.146;2022-12-18T02:00:21;65.68;;;26.58;;
29908;SDS011;36247;51.952;6.146;2022-12-18T02:02:47;65.43;;;25.02;;
29908;SDS011;36247;51.952;6.146;2022-12-18T02:05:26;73.55;;;25.80;;
29908;SDS011;36247;51.952;6.146;2022-12-18T02:08:13;63.60;;;23.60;;
29908;SDS011;36247;51.952;6.146;2022-12-18T02:10:53;64.13;;;24.92;;
29908;SDS011;36247;51.952;6.146;2022-12-18T02:18:59;55.20;;;23.92;;
29908;SDS011;36247;51.952;6.146;2022-12-18T02:27:04;70.32;;;25.73;;
29908;SDS011;36247;51.952;6.146;2022-12-18T02:29:34;58.83;;;25.27;;
29908;SDS011;36247;51.952;6.146;2022-12-18T02:32:11;63.25;;;25.50;;
29908;SDS011;36247;51.952;6.146;2022-12-18T02:34:41;54.00;;;25.55;;
29908;SDS011;36247;51.952;6.146;2022-12-18T02:37:14;62.75;;;25.33;;
29908;SDS011;36247;51.952;6.146;2022-12-18T02:39:42;54.38;;;23.88;;
29908;SDS011;36247;51.952;6.146;2022-12-18T02:42:11;59.53;;;24.33;;
29908;SDS011;36247;51.952;6.146;2022-12-18T02:44:46;59.22;;;23.33;;
29908;SDS011;36247;51.952;6.146;2022-12-18T02:47:18;51.42;;;21.55;;
29908;SDS011;36247;51.952;6.146;2022-12-18T02:52:41;58.20;;;24.27;;
29908;SDS011;36247;51.952;6.146;2022-12-18T02:55:34;56.28;;;23.55;;
29908;SDS011;36247;51.952;6.146;2022-12-18T02:58:06;57.88;;;21.55;;
29908;SDS011;36247;51.952;6.146;2022-12-18T03:00:41;59.20;;;22.05;;
29908;SDS011;36247;51.952;6.146;2022-12-18T03:03:35;55.03;;;21.52;;
29908;SDS011;36247;51.952;6.146;2022-12-18T03:06:07;56.95;;;21.63;;
29908;SDS011;36247;51.952;6.146;2022-12-18T03:08:38;52.60;;;20.95;;
29908;SDS011;36247;51.952;6.146;2022-12-18T03:11:08;60.63;;;23.05;;
29908;SDS011;36247;51.952;6.146;2022-12-18T03:13:41;50.85;;;20.92;;
29908;SDS011;36247;51.952;6.146;2022-12-18T03:16:14;51.78;;;20.42;;
29908;SDS011;36247;51.952;6.146;2022-12-18T03:18:48;47.53;;;21.00;;
29908;SDS011;36247;51.952;6.146;2022-12-18T03:21:21;46.22;;;19.08;;
29908;SDS011;36247;51.952;6.146;2022-12-18T03:23:53;48.28;;;17.30;;
29908;SDS011;36247;51.952;6.146;2022-12-18T03:26:24;46.30;;;20.33;;
29908;SDS011;36247;51.952;6.146;2022-12-18T03:29:02;48.67;;;19.30;;
29908;SDS011;36247;51.952;6.146;2022-12-18T03:31:36;44.95;;;19.48;;
29908;SDS011;36247;51.952;6.146;2022-12-18T03:34:06;40.58;;;18.73;;
29908;SDS011;36247;51.952;6.146;2022-12-18T03:36:42;42.92;;;17.55;;
29908;SDS011;36247;51.952;6.146;2022-12-18T03:39:08;38.47;;;17.85;;
29908;SDS011;36247;51.952;6.146;2022-12-18T03:44:39;49.78;;;19.85;;
29908;SDS011;36247;51.952;6.146;2022-12-18T03:47:19;49.13;;;18.73;;
29908;SDS011;36247;51.952;6.146;2022-12-18T03:50:11;48.25;;;19.42;;
29908;SDS011;36247;51.952;6.146;2022-12-18T03:56:05;49.60;;;20.58;;
29908;SDS011;36247;51.952;6.146;2022-12-18T03:58:37;49.38;;;19.48;;
29908;SDS011;36247;51.952;6.146;2022-12-18T04:01:14;47.25;;;20.75;;
29908;SDS011;36247;51.952;6.146;2022-12-18T04:03:43;50.85;;;20.85;;
29908;SDS011;36247;51.952;6.146;2022-12-18T04:06:11;49.17;;;21.10;;
29908;SDS011;36247;51.952;6.146;2022-12-18T04:08:40;42.95;;;19.83;;
29908;SDS011;36247;51.952;6.146;2022-12-18T04:11:09;39.85;;;18.17;;
29908;SDS011;36247;51.952;6.146;2022-12-18T04:13:35;49.92;;;19.40;;
29908;SDS011;36247;51.952;6.146;2022-12-18T04:16:06;49.97;;;19.92;;
29908;SDS011;36247;51.952;6.146;2022-12-18T04:18:31;48.53;;;19.65;;
29908;SDS011;36247;51.952;6.146;2022-12-18T04:20:58;55.00;;;21.83;;
29908;SDS011;36247;51.952;6.146;2022-12-18T04:23:24;42.97;;;19.85;;
29908;SDS011;36247;51.952;6.146;2022-12-18T04:25:52;57.28;;;19.65;;
29908;SDS011;36247;51.952;6.146;2022-12-18T04:28:29;38.63;;;17.70;;
29908;SDS011;36247;51.952;6.146;2022-12-18T04:33:16;50.47;;;19.63;;
29908;SDS011;36247;51.952;6.146;2022-12-18T04:35:42;39.88;;;18.23;;
29908;SDS011;36247;51.952;6.146;2022-12-18T04:38:08;41.17;;;16.95;;
29908;SDS011;36247;51.952;6.146;2022-12-18T04:40:34;37.90;;;16.10;;
29908;SDS011;36247;51.952;6.146;2022-12-18T04:43:00;36.97;;;14.95;;
29908;SDS011;36247;51.952;6.146;2022-12-18T04:45:26;33.63;;;14.00;;
29908;SDS011;36247;51.952;6.146;2022-12-18T04:47:51;36.05;;;17.38;;
29908;SDS011;36247;51.952;6.146;2022-12-18T04:50:17;36.97;;;15.13;;
29908;SDS011;36247;51.952;6.146;2022-12-18T04:52:44;33.20;;;15.30;;
29908;SDS011;36247;51.952;6.146;2022-12-18T04:55:12;35.58;;;15.95;;
29908;SDS011;36247;51.952;6.146;2022-12-18T04:57:37;39.22;;;18.35;;
29908;SDS011;36247;51.952;6.146;2022-12-18T05:00:03;40.28;;;18.27;;
29908;SDS011;36247;51.952;6.146;2022-12-18T05:02:29;42.60;;;16.08;;
29908;SDS011;36247;51.952;6.146;2022-12-18T05:04:54;36.85;;;17.25;;
29908;SDS011;36247;51.952;6.146;2022-12-18T05:07:19;39.90;;;17.33;;
29908;SDS011;36247;51.952;6.146;2022-12-18T05:09:45;39.20;;;17.27;;
29908;SDS011;36247;51.952;6.146;2022-12-18T05:12:10;34.10;;;15.48;;
29908;SDS011;36247;51.952;6.146;2022-12-18T05:14:36;37.88;;;16.80;;
29908;SDS011;36247;51.952;6.146;2022-12-18T05:17:01;38.22;;;16.25;;
29908;SDS011;36247;51.952;6.146;2022-12-18T05:19:26;41.70;;;16.65;;
29908;SDS011;36247;51.952;6.146;2022-12-18T05:21:52;39.42;;;16.02;;
29908;SDS011;36247;51.952;6.146;2022-12-18T05:24:17;42.60;;;18.25;;
29908;SDS011;36247;51.952;6.146;2022-12-18T05:26:43;35.67;;;15.07;;
29908;SDS011;36247;51.952;6.146;2022-12-18T05:29:08;37.55;;;15.85;;
29908;SDS011;36247;51.952;6.146;2022-12-18T05:31:37;33.80;;;15.30;;
29908;SDS011;36247;51.952;6.146;2022-12-18T05:34:03;33.45;;;14.57;;
29908;SDS011;36247;51.952;6.146;2022-12-18T05:36:28;33.17;;;14.85;;
29908;SDS011;36247;51.952;6.146;2022-12-18T05:38:53;32.65;;;15.50;;
29908;SDS011;36247;51.952;6.146;2022-12-18T05:41:19;38.60;;;15.70;;
29908;SDS011;36247;51.952;6.146;2022-12-18T05:43:44;30.35;;;14.63;;
29908;SDS011;36247;51.952;6.146;2022-12-18T05:46:14;32.65;;;16.58;;
29908;SDS011;36247;51.952;6.146;2022-12-18T05:48:41;28.02;;;13.80;;
29908;SDS011;36247;51.952;6.146;2022-12-18T05:51:11;35.65;;;15.15;;
29908;SDS011;36247;51.952;6.146;2022-12-18T05:53:39;31.87;;;13.83;;
29908;SDS011;36247;51.952;6.146;2022-12-18T05:56:06;30.42;;;13.85;;
29908;SDS011;36247;51.952;6.146;2022-12-18T05:58:33;32.40;;;14.02;;
29908;SDS011;36247;51.952;6.146;2022-12-18T06:01:05;24.20;;;14.73;;
29908;SDS011;36247;51.952;6.146;2022-12-18T06:03:33;28.63;;;13.25;;
29908;SDS011;36247;51.952;6.146;2022-12-18T06:05:58;29.77;;;12.98;;
29908;SDS011;36247;51.952;6.146;2022-12-18T06:08:24;27.20;;;12.88;;
29908;SDS011;36247;51.952;6.146;2022-12-18T06:10:50;28.10;;;13.95;;
29908;SDS011;36247;51.952;6.146;2022-12-18T06:13:17;32.67;;;14.25;;
29908;SDS011;36247;51.952;6.146;2022-12-18T06:15:44;27.73;;;13.85;;
29908;SDS011;36247;51.952;6.146;2022-12-18T06:18:10;29.98;;;13.60;;
29908;SDS011;36247;51.952;6.146;2022-12-18T06:20:36;34.20;;;14.27;;
29908;SDS011;36247;51.952;6.146;2022-12-18T06:23:02;32.00;;;14.32;;
29908;SDS011;36247;51.952;6.146;2022-12-18T06:25:28;32.03;;;13.00;;
29908;SDS011;36247;51.952;6.146;2022-12-18T06:27:53;30.60;;;13.02;;
29908;SDS011;36247;51.952;6.146;2022-12-18T06:30:19;30.65;;;15.40;;
29908;SDS011;36247;51.952;6.146;2022-12-18T06:32:45;24.23;;;13.73;;
29908;SDS011;36247;51.952;6.146;2022-12-18T06:35:10;29.65;;;14.48;;
29908;SDS011;36247;51.952;6.146;2022-12-18T06:37:35;28.30;;;14.52;;
29908;SDS011;36247;51.952;6.146;2022-12-18T06:40:01;28.63;;;13.93;;
29908;SDS011;36247;51.952;6.146;2022-12-18T06:42:26;34.70;;;15.18;;
29908;SDS011;36247;51.952;6.146;2022-12-18T06:44:53;29.35;;;14.65;;
29908;SDS011;36247;51.952;6.146;2022-12-18T06:47:19;31.30;;;15.90;;
29908;SDS011;36247;51.952;6.146;2022-12-18T06:49:44;30.10;;;15.55;;
29908;SDS011;36247;51.952;6.146;2022-12-18T06:52:10;30.05;;;13.80;;
29908;SDS011;36247;51.952;6.146;2022-12-18T06:54:35;38.80;;;15.40;;
29908;SDS011;36247;51.952;6.146;2022-12-18T06:57:00;34.83;;;15.75;;
29908;SDS011;36247;51.952;6.146;2022-12-18T06:59:26;28.30;;;13.32;;
29908;SDS011;36247;51.952;6.146;2022-12-18T07:01:51;27.15;;;14.57;;
29908;SDS011;36247;51.952;6.146;2022-12-18T07:04:17;27.77;;;13.80;;
29908;SDS011;36247;51.952;6.146;2022-12-18T07:06:42;27.38;;;11.93;;
29908;SDS011;36247;51.952;6.146;2022-12-18T07:09:07;28.45;;;12.30;;
29908;SDS011;36247;51.952;6.146;2022-12-18T07:11:33;29.58;;;14.02;;
29908;SDS011;36247;51.952;6.146;2022-12-18T07:13:58;24.17;;;13.55;;
29908;SDS011;36247;51.952;6.146;2022-12-18T07:16:24;28.98;;;12.68;;
29908;SDS011;36247;51.952;6.146;2022-12-18T07:18:50;32.03;;;14.32;;
29908;SDS011;36247;51.952;6.146;2022-12-18T07:21:17;32.20;;;15.32;;
29908;SDS011;36247;51.952;6.146;2022-12-18T07:23:44;32.40;;;13.82;;
29908;SDS011;36247;51.952;6.146;2022-12-18T07:26:11;35.80;;;14.80;;
29908;SDS011;36247;51.952;6.146;2022-12-18T07:28:38;25.15;;;12.63;;
29908;SDS011;36247;51.952;6.146;2022-12-18T07:31:05;23.55;;;10.75;;
29908;SDS011;36247;51.952;6.146;2022-12-18T07:33:33;25.85;;;12.57;;
29908;SDS011;36247;51.952;6.146;2022-12-18T07:35:59;24.88;;;13.50;;
29908;SDS011;36247;51.952;6.146;2022-12-18T07:38:26;31.95;;;13.80;;
29908;SDS011;36247;51.952;6.146;2022-12-18T07:40:52;25.20;;;12.52;;
29908;SDS011;36247;51.952;6.146;2022-12-18T07:43:17;23.00;;;12.15;;
29908;SDS011;36247;51.952;6.146;2022-12-18T07:45:43;34.40;;;14.15;;
29908;SDS011;36247;51.952;6.146;2022-12-18T07:48:08;26.73;;;13.65;;
29908;SDS011;36247;51.952;6.146;2022-12-18T07:50:34;28.52;;;13.88;;
29908;SDS011;36247;51.952;6.146;2022-12-18T07:52:59;29.50;;;12.68;;
29908;SDS011;36247;51.952;6.146;2022-12-18T07:55:29;26.65;;;12.68;;
29908;SDS011;36247;51.952;6.146;2022-12-18T07:57:55;23.38;;;10.93;;
29908;SDS011;36247;51.952;6.146;2022-12-18T08:00:20;24.60;;;13.48;;
29908;SDS011;36247;51.952;6.146;2022-12-18T08:02:46;21.55;;;10.93;;
29908;SDS011;36247;51.952;6.146;2022-12-18T08:05:11;25.77;;;12.75;;
29908;SDS011;36247;51.952;6.146;2022-12-18T08:07:36;28.35;;;15.38;;
29908;SDS011;36247;51.952;6.146;2022-12-18T08:10:03;25.77;;;11.55;;
29908;SDS011;36247;51.952;6.146;2022-12-18T08:12:28;25.15;;;13.00;;
29908;SDS011;36247;51.952;6.146;2022-12-18T08:14:54;28.02;;;12.45;;
29908;SDS011;36247;51.952;6.146;2022-12-18T08:17:19;24.70;;;11.68;;
29908;SDS011;36247;51.952;6.146;2022-12-18T08:19:45;24.15;;;12.35;;
29908;SDS011;36247;51.952;6.146;2022-12-18T08:22:10;34.42;;;14.02;;
29908;SDS011;36247;51.952;6.146;2022-12-18T08:24:36;23.48;;;12.10;;
29908;SDS011;36247;51.952;6.146;2022-12-18T08:27:01;26.63;;;11.93;;
29908;SDS011;36247;51.952;6.146;2022-12-18T08:29:26;19.38;;;10.55;;
29908;SDS011;36247;51.952;6.146;2022-12-18T08:31:52;18.75;;;10.38;;
29908;SDS011;36247;51.952;6.146;2022-12-18T08:34:17;29.63;;;10.50;;
29908;SDS011;36247;51.952;6.146;2022-12-18T08:36:42;22.35;;;10.07;;
29908;SDS011;36247;51.952;6.146;2022-12-18T08:39:08;14.57;;;9.27;;
29908;SDS011;36247;51.952;6.146;2022-12-18T08:41:33;21.70;;;11.05;;
29908;SDS011;36247;51.952;6.146;2022-12-18T08:43:59;23.13;;;11.52;;
29908;SDS011;36247;51.952;6.146;2022-12-18T08:46:43;27.55;;;10.95;;
29908;SDS011;36247;51.952;6.146;2022-12-18T08:49:09;22.23;;;11.52;;
29908;SDS011;36247;51.952;6.146;2022-12-18T08:51:36;19.77;;;10.63;;
29908;SDS011;36247;51.952;6.146;2022-12-18T08:54:02;23.10;;;10.98;;
29908;SDS011;36247;51.952;6.146;2022-12-18T08:56:29;23.13;;;9.27;;
29908;SDS011;36247;51.952;6.146;2022-12-18T08:58:55;18.42;;;10.18;;
29908;SDS011;36247;51.952;6.146;2022-12-18T09:01:21;20.65;;;10.45;;
29908;SDS011;36247;51.952;6.146;2022-12-18T09:03:47;23.15;;;10.88;;
29908;SDS011;36247;51.952;6.146;2022-12-18T09:06:14;24.27;;;11.25;;
29908;SDS011;36247;51.952;6.146;2022-12-18T09:08:41;22.48;;;10.27;;
29908;SDS011;36247;51.952;6.146;2022-12-18T09:11:40;24.23;;;11.32;;
29908;SDS011;36247;51.952;6.146;2022-12-18T09:13:59;25.50;;;11.35;;
29908;SDS011;36247;51.952;6.146;2022-12-18T09:16:26;18.50;;;11.23;;
29908;SDS011;36247;51.952;6.146;2022-12-18T09:18:54;22.20;;;9.90;;
29908;SDS011;36247;51.952;6.146;2022-12-18T09:21:24;23.10;;;10.93;;
29908;SDS011;36247;51.952;6.146;2022-12-18T09:23:52;18.90;;;9.25;;
29908;SDS011;36247;51.952;6.146;2022-12-18T09:26:19;19.40;;;9.50;;
29908;SDS011;36247;51.952;6.146;2022-12-18T09:28:45;18.95;;;10.45;;
29908;SDS011;36247;51.952;6.146;2022-12-18T09:31:11;19.10;;;9.80;;
29908;SDS011;36247;51.952;6.146;2022-12-18T09:33:38;24.80;;;10.48;;
29908;SDS011;36247;51.952;6.146;2022-12-18T09:36:04;20.73;;;9.65;;
29908;SDS011;36247;51.952;6.146;2022-12-18T09:38:33;22.52;;;9.93;;
29908;SDS011;36247;51.952;6.146;2022-12-18T09:41:30;19.92;;;10.98;;
29908;SDS011;36247;51.952;6.146;2022-12-18T09:43:46;20.85;;;11.48;;
29908;SDS011;36247;51.952;6.146;2022-12-18T09:46:19;18.73;;;9.98;;
29908;SDS011;36247;51.952;6.146;2022-12-18T09:48:52;20.35;;;10.30;;
29908;SDS011;36247;51.952;6.146;2022-12-18T09:51:44;24.13;;;10.15;;
29908;SDS011;36247;51.952;6.146;2022-12-18T09:54:16;22.92;;;10.68;;
29908;SDS011;36247;51.952;6.146;2022-12-18T09:56:47;20.70;;;10.65;;
29908;SDS011;36247;51.952;6.146;2022-12-18T10:02:10;21.00;;;10.10;;
29908;SDS011;36247;51.952;6.146;2022-12-18T10:04:39;18.02;;;9.90;;
29908;SDS011;36247;51.952;6.146;2022-12-18T10:07:08;24.75;;;10.60;;
29908;SDS011;36247;51.952;6.146;2022-12-18T10:09:53;18.23;;;9.52;;
29908;SDS011;36247;51.952;6.146;2022-12-18T10:15:31;21.75;;;10.15;;
29908;SDS011;36247;51.952;6.146;2022-12-18T10:20:34;24.08;;;11.30;;
29908;SDS011;36247;51.952;6.146;2022-12-18T10:28:10;17.35;;;10.15;;
29908;SDS011;36247;51.952;6.146;2022-12-18T10:30:39;19.33;;;10.20;;
29908;SDS011;36247;51.952;6.146;2022-12-18T10:33:05;23.83;;;11.80;;
29908;SDS011;36247;51.952;6.146;2022-12-18T10:35:31;20.17;;;10.30;;
29908;SDS011;36247;51.952;6.146;2022-12-18T10:40:51;21.30;;;10.45;;
29908;SDS011;36247;51.952;6.146;2022-12-18T10:43:20;16.58;;;9.95;;
29908;SDS011;36247;51.952;6.146;2022-12-18T10:48:33;20.15;;;9.65;;
29908;SDS011;36247;51.952;6.146;2022-12-18T10:54:06;18.73;;;11.00;;
29908;SDS011;36247;51.952;6.146;2022-12-18T10:56:40;18.75;;;9.27;;
29908;SDS011;36247;51.952;6.146;2022-12-18T10:59:08;20.42;;;10.23;;
29908;SDS011;36247;51.952;6.146;2022-12-18T11:01:57;19.55;;;11.07;;
29908;SDS011;36247;51.952;6.146;2022-12-18T11:04:26;21.92;;;10.68;;
29908;SDS011;36247;51.952;6.146;2022-12-18T11:09:33;19.25;;;10.15;;
29908;SDS011;36247;51.952;6.146;2022-12-18T11:12:01;21.45;;;10.75;;
29908;SDS011;36247;51.952;6.146;2022-12-18T11:14:41;21.35;;;9.93;;
29908;SDS011;36247;51.952;6.146;2022-12-18T11:17:21;22.42;;;10.75;;
29908;SDS011;36247;51.952;6.146;2022-12-18T11:19:53;24.88;;;11.45;;
29908;SDS011;36247;51.952;6.146;2022-12-18T11:22:21;17.70;;;9.25;;
29908;SDS011;36247;51.952;6.146;2022-12-18T11:27:47;19.52;;;10.13;;
29908;SDS011;36247;51.952;6.146;2022-12-18T11:30:22;22.80;;;10.63;;
29908;SDS011;36247;51.952;6.146;2022-12-18T11:33:03;20.77;;;10.65;;
29908;SDS011;36247;51.952;6.146;2022-12-18T11:38:18;20.30;;;11.18;;
29908;SDS011;36247;51.952;6.146;2022-12-18T11:43:35;17.87;;;10.53;;
29908;SDS011;36247;51.952;6.146;2022-12-18T11:46:08;19.27;;;9.75;;
29908;SDS011;36247;51.952;6.146;2022-12-18T11:50:58;17.90;;;9.55;;
29908;SDS011;36247;51.952;6.146;2022-12-18T11:53:27;24.08;;;11.25;;
29908;SDS011;36247;51.952;6.146;2022-12-18T11:58:29;20.35;;;10.50;;
29908;SDS011;36247;51.952;6.146;2022-12-18T12:06:22;20.02;;;10.05;;
29908;SDS011;36247;51.952;6.146;2022-12-18T12:16:29;21.30;;;11.75;;
29908;SDS011;36247;51.952;6.146;2022-12-18T12:19:25;20.98;;;10.82;;
29908;SDS011;36247;51.952;6.146;2022-12-18T12:29:56;23.23;;;9.85;;
29908;SDS011;36247;51.952;6.146;2022-12-18T12:40:48;20.50;;;9.27;;
29908;SDS011;36247;51.952;6.146;2022-12-18T12:45:53;16.92;;;10.35;;
29908;SDS011;36247;51.952;6.146;2022-12-18T12:50:58;21.17;;;11.60;;
29908;SDS011;36247;51.952;6.146;2022-12-18T12:53:29;22.45;;;11.15;;
29908;SDS011;36247;51.952;6.146;2022-12-18T12:55:58;23.27;;;11.50;;
29908;SDS011;36247;51.952;6.146;2022-12-18T13:01:28;17.52;;;10.35;;
29908;SDS011;36247;51.952;6.146;2022-12-18T13:09:11;20.38;;;10.52;;
29908;SDS011;36247;51.952;6.146;2022-12-18T13:11:38;21.70;;;11.70;;
29908;SDS011;36247;51.952;6.146;2022-12-18T13:14:27;24.95;;;11.48;;
29908;SDS011;36247;51.952;6.146;2022-12-18T13:19:48;20.00;;;11.50;;
29908;SDS011;36247;51.952;6.146;2022-12-18T13:24:59;21.98;;;11.10;;
29908;SDS011;36247;51.952;6.146;2022-12-18T13:51:21;26.15;;;12.10;;
29908;SDS011;36247;51.952;6.146;2022-12-18T13:56:30;22.55;;;12.27;;
29908;SDS011;36247;51.952;6.146;2022-12-18T14:01:45;23.48;;;11.25;;
29908;SDS011;36247;51.952;6.146;2022-12-18T14:04:11;25.60;;;12.60;;
29908;SDS011;36247;51.952;6.146;2022-12-18T14:06:43;24.98;;;12.95;;
29908;SDS011;36247;51.952;6.146;2022-12-18T14:09:13;33.58;;;12.82;;
29908;SDS011;36247;51.952;6.146;2022-12-18T14:11:40;19.10;;;10.73;;
29908;SDS011;36247;51.952;6.146;2022-12-18T14:14:13;22.92;;;13.18;;
29908;SDS011;36247;51.952;6.146;2022-12-18T14:16:42;30.48;;;12.35;;
29908;SDS011;36247;51.952;6.146;2022-12-18T14:19:09;24.67;;;12.05;;
29908;SDS011;36247;51.952;6.146;2022-12-18T14:21:39;24.52;;;13.45;;
29908;SDS011;36247;51.952;6.146;2022-12-18T14:26:33;23.83;;;12.40;;
29908;SDS011;36247;51.952;6.146;2022-12-18T14:29:00;24.13;;;11.60;;
29908;SDS011;36247;51.952;6.146;2022-12-18T14:31:42;25.20;;;13.40;;
29908;SDS011;36247;51.952;6.146;2022-12-18T14:34:13;27.70;;;13.13;;
29908;SDS011;36247;51.952;6.146;2022-12-18T14:36:40;28.50;;;14.70;;
29908;SDS011;36247;51.952;6.146;2022-12-18T14:39:12;24.25;;;12.75;;
29908;SDS011;36247;51.952;6.146;2022-12-18T14:41:42;25.67;;;13.95;;
29908;SDS011;36247;51.952;6.146;2022-12-18T14:44:07;24.85;;;14.13;;
29908;SDS011;36247;51.952;6.146;2022-12-18T14:51:57;30.35;;;13.43;;
29908;SDS011;36247;51.952;6.146;2022-12-18T14:54:25;31.08;;;13.30;;
29908;SDS011;36247;51.952;6.146;2022-12-18T14:56:57;22.58;;;13.77;;
29908;SDS011;36247;51.952;6.146;2022-12-18T14:59:26;20.73;;;11.85;;
29908;SDS011;36247;51.952;6.146;2022-12-18T15:01:57;26.73;;;12.75;;
29908;SDS011;36247;51.952;6.146;2022-12-18T15:04:39;26.27;;;13.25;;
29908;SDS011;36247;51.952;6.146;2022-12-18T15:07:12;26.83;;;13.40;;
29908;SDS011;36247;51.952;6.146;2022-12-18T15:09:39;30.70;;;14.32;;
29908;SDS011;36247;51.952;6.146;2022-12-18T15:12:16;30.08;;;14.43;;
29908;SDS011;36247;51.952;6.146;2022-12-18T15:14:50;29.58;;;13.50;;
29908;SDS011;36247;51.952;6.146;2022-12-18T15:17:20;27.88;;;13.82;;
29908;SDS011;36247;51.952;6.146;2022-12-18T15:19:48;27.95;;;13.55;;
29908;SDS011;36247;51.952;6.146;2022-12-18T15:24:50;24.65;;;12.45;;
29908;SDS011;36247;51.952;6.146;2022-12-18T15:27:22;32.38;;;12.88;;
29908;SDS011;36247;51.952;6.146;2022-12-18T15:30:11;27.65;;;13.27;;
29908;SDS011;36247;51.952;6.146;2022-12-18T15:32:43;20.67;;;11.07;;
29908;SDS011;36247;51.952;6.146;2022-12-18T15:35:13;25.70;;;13.30;;
29908;SDS011;36247;51.952;6.146;2022-12-18T15:37:40;24.90;;;13.32;;
29908;SDS011;36247;51.952;6.146;2022-12-18T15:40:06;31.10;;;13.30;;
29908;SDS011;36247;51.952;6.146;2022-12-18T15:42:34;27.38;;;13.30;;
29908;SDS011;36247;51.952;6.146;2022-12-18T15:45:18;31.52;;;15.13;;
29908;SDS011;36247;51.952;6.146;2022-12-18T15:47:43;30.48;;;14.73;;
29908;SDS011;36247;51.952;6.146;2022-12-18T15:50:09;26.25;;;13.13;;
29908;SDS011;36247;51.952;6.146;2022-12-18T15:52:45;29.13;;;14.20;;
29908;SDS011;36247;51.952;6.146;2022-12-18T15:55:16;26.88;;;13.30;;
29908;SDS011;36247;51.952;6.146;2022-12-18T15:58:02;29.98;;;13.73;;
29908;SDS011;36247;51.952;6.146;2022-12-18T16:00:29;29.85;;;13.43;;
29908;SDS011;36247;51.952;6.146;2022-12-18T16:02:54;32.03;;;13.05;;
29908;SDS011;36247;51.952;6.146;2022-12-18T16:05:20;28.90;;;14.27;;
29908;SDS011;36247;51.952;6.146;2022-12-18T16:07:47;33.83;;;15.18;;
29908;SDS011;36247;51.952;6.146;2022-12-18T16:10:13;33.35;;;14.65;;
29908;SDS011;36247;51.952;6.146;2022-12-18T16:12:38;36.67;;;16.42;;
29908;SDS011;36247;51.952;6.146;2022-12-18T16:15:04;32.05;;;14.73;;
29908;SDS011;36247;51.952;6.146;2022-12-18T16:17:31;25.83;;;12.73;;
29908;SDS011;36247;51.952;6.146;2022-12-18T16:19:57;27.63;;;14.85;;
29908;SDS011;36247;51.952;6.146;2022-12-18T16:22:23;34.63;;;15.45;;
29908;SDS011;36247;51.952;6.146;2022-12-18T16:24:52;31.45;;;15.13;;
29908;SDS011;36247;51.952;6.146;2022-12-18T16:27:18;33.63;;;15.20;;
29908;SDS011;36247;51.952;6.146;2022-12-18T16:29:43;28.52;;;13.88;;
29908;SDS011;36247;51.952;6.146;2022-12-18T16:32:11;34.67;;;15.48;;
29908;SDS011;36247;51.952;6.146;2022-12-18T16:34:39;31.02;;;14.90;;
29908;SDS011;36247;51.952;6.146;2022-12-18T16:37:07;35.38;;;14.43;;
29908;SDS011;36247;51.952;6.146;2022-12-18T16:39:34;27.60;;;14.55;;
29908;SDS011;36247;51.952;6.146;2022-12-18T16:42:01;29.38;;;14.27;;
29908;SDS011;36247;51.952;6.146;2022-12-18T16:44:35;37.25;;;15.70;;
29908;SDS011;36247;51.952;6.146;2022-12-18T16:47:00;31.17;;;14.63;;
29908;SDS011;36247;51.952;6.146;2022-12-18T16:49:27;35.67;;;17.13;;
29908;SDS011;36247;51.952;6.146;2022-12-18T16:51:54;33.83;;;14.90;;
29908;SDS011;36247;51.952;6.146;2022-12-18T16:54:20;41.95;;;16.95;;
29908;SDS011;36247;51.952;6.146;2022-12-18T16:56:45;33.33;;;15.70;;
29908;SDS011;36247;51.952;6.146;2022-12-18T16:59:14;33.45;;;16.33;;
29908;SDS011;36247;51.952;6.146;2022-12-18T17:01:40;36.13;;;16.58;;
29908;SDS011;36247;51.952;6.146;2022-12-18T17:04:06;33.25;;;16.75;;
29908;SDS011;36247;51.952;6.146;2022-12-18T17:06:33;33.25;;;15.55;;